This demonstration page uses our WeatherBlox Daily Observations layout. Learn more.

38.88101, -77.10428

Hourly Observations for August 1, 2016

Temp ( °F °C ) Dew Point ( °F °C ) Humidity (%) Winds ( mph kmh ) Pressure ( in mb ) Visibility ( mi km ) Precip ( " mm )
12:52 am 00:52 Mostly Cloudy 79 26.1 72 22.2 79 79 WSW 6 9 30.03 1017 10 16.09344 0 0
1:52 am 01:52 Mostly Cloudy 78 25.6 72 22.2 82 82 W 7 11 30 1016 10 16.09344 0 0
2:52 am 02:52 Partly Cloudy 77 25 71 21.7 82 82 SW 5 7 29.97 1015 10 16.09344 0 0
3:52 am 03:52 Mostly Cloudy 77 25 71 21.7 82 82 Calm 29.97 1015 10 16.09344 0 0
4:52 am 04:52 Cloudy 77 25 71 21.7 82 82 SSW 5 7 30 1016 10 16.09344 0 0
5:52 am 05:52 Mostly Cloudy 76 24.4 72 22.2 88 88 S 6 9 30 1016 10 16.09344 0 0
6:52 am 06:52 Mostly Cloudy 77 25 72 22.2 85 85 SW 8 13 30.03 1017 10 16.09344 0 0
7:52 am 07:52 Mostly Cloudy 78 25.6 72 22.2 82 82 SW 3 6 30.03 1017 10 16.09344 0 0
8:52 am 08:52 Mostly Cloudy 82 27.8 72 22.2 72 72 NNE 5 7 30.03 1017 10 16.09344 0 0
9:52 am 09:52 Mostly Cloudy 83 28.3 72 22.2 70 70 NNW 7 11 30.03 1017 10 16.09344 0 0
10:52 am 10:52 Mostly Cloudy 86 30 73 22.8 65 65 NNW 8 13 30.03 1017 10 16.09344 0 0
11:52 am 11:52 Mostly Cloudy 88 31.1 73 22.8 61 61 NE 6 9 30.03 1017 10 16.09344 0 0
12:52 pm 12:52 Cloudy 88 31.1 73 22.8 61 61 ENE 5 7 30.03 1017 10 16.09344 0 0
1:52 pm 13:52 Cloudy 89 31.7 73 22.8 59 59 SSE 7 11 30 1016 10 16.09344 0 0
2:52 pm 14:52 Cloudy 90 32.2 72 22.2 56 56 SSW 7 11 30 1016 10 16.09344 0 0
3:52 pm 15:52 Mostly Cloudy 92 33.3 70 21.1 49 49 W 9 15 29.97 1015 10 16.09344 0 0
4:52 pm 16:52 Mostly Cloudy 91 32.8 70 21.1 50 50 W 13 20 29.97 1015 10 16.09344 0 0
5:52 pm 17:52 Mostly Cloudy 89 31.7 70 21.1 53 53 NNW 14 22 29.97 1015 10 16.09344 0 0
6:52 pm 18:52 Mostly Cloudy 88 31.1 69 20.6 54 54 N 8 13 29.97 1015 10 16.09344 0 0
7:42 pm 19:42 Sunny 82 28 72 22 70 70 E 13 20 30 1016 10 16.09344 0 0
7:52 pm 19:52 Mostly Cloudy 82 28 72 22 70 70 W 5 7 29.97 1015 10 16.09344 0 0
8:52 pm 20:52 Mostly Cloudy 82 27.8 70 21.1 67 67 ENE 6 9 30 1016 10 16.09344 0 0
9:52 pm 21:52 Mostly Cloudy 79 26.1 71 21.7 77 77 NE 7 11 30.03 1017 10 16.09344 0 0
10:52 pm 22:52 Partly Cloudy 77 25 71 21.7 82 82 ENE 6 9 30.03 1017 10 16.09344 0 0
11:52 pm 23:52 Partly Cloudy 77 25 71 21.7 82 82 E 3 6 30.03 1017 10 16.09344 0 0

Powered by AerisWeather